createdAt,value
2022-09-25T00:00:53.010Z,23.30
2022-09-25T00:03:19.398Z,22.90
2022-09-25T00:05:46.816Z,24.10
2022-09-25T00:08:14.561Z,23.23
2022-09-25T00:10:47.526Z,21.67
2022-09-25T00:13:16.402Z,23.10
2022-09-25T00:15:47.935Z,22.70
2022-09-25T00:18:15.242Z,27.13
2022-09-25T00:20:41.710Z,24.50
2022-09-25T00:23:08.757Z,23.87
2022-09-25T00:25:35.287Z,24.33
2022-09-25T00:28:01.877Z,23.93
2022-09-25T00:30:28.328Z,23.40
2022-09-25T00:32:54.757Z,26.10
2022-09-25T00:35:21.210Z,24.63
2022-09-25T00:37:47.972Z,23.67
2022-09-25T00:40:14.497Z,24.77
2022-09-25T00:42:41.216Z,25.30
2022-09-25T00:45:16.885Z,25.87
2022-09-25T00:47:59.678Z,27.63
2022-09-25T00:50:42.846Z,26.67
2022-09-25T00:53:18.731Z,26.33
2022-09-25T00:55:46.234Z,28.07
2022-09-25T00:58:16.362Z,26.23
2022-09-25T01:00:42.826Z,28.77
2022-09-25T01:03:09.536Z,26.93
2022-09-25T01:05:40.619Z,28.97
2022-09-25T01:08:10.313Z,27.13
2022-09-25T01:10:36.887Z,27.20
2022-09-25T01:13:03.766Z,29.20
2022-09-25T01:15:41.911Z,30.30
2022-09-25T01:18:31.102Z,30.10
2022-09-25T01:21:09.873Z,28.60
2022-09-25T01:23:55.730Z,28.33
2022-09-25T01:26:56.186Z,29.37
2022-09-25T01:29:37.352Z,28.63
2022-09-25T01:32:23.262Z,32.33
2022-09-25T01:34:56.894Z,33.40
2022-09-25T01:37:35.877Z,32.27
2022-09-25T01:40:08.285Z,31.50
2022-09-25T01:42:42.615Z,31.23
2022-09-25T01:45:16.629Z,30.43
2022-09-25T01:47:48.608Z,32.83
2022-09-25T01:50:29.147Z,31.90
2022-09-25T01:52:59.423Z,32.57
2022-09-25T01:55:52.801Z,30.60
2022-09-25T01:58:31.899Z,30.33
2022-09-25T02:01:05.069Z,29.73
2022-09-25T02:03:38.390Z,31.10
2022-09-25T02:06:07.411Z,31.53
2022-09-25T02:08:44.086Z,32.07
2022-09-25T02:11:12.443Z,32.97
2022-09-25T02:13:50.196Z,33.13
2022-09-25T02:16:25.028Z,32.47
2022-09-25T02:19:11.135Z,32.93
2022-09-25T02:21:54.540Z,34.67
2022-09-25T02:24:40.954Z,33.30
2022-09-25T02:27:07.355Z,30.33
2022-09-25T02:29:34.504Z,33.00
2022-09-25T02:32:08.357Z,33.63
2022-09-25T02:34:35.451Z,30.50
2022-09-25T02:37:01.879Z,27.03
2022-09-25T02:39:30.090Z,27.87
2022-09-25T02:41:56.399Z,29.33
2022-09-25T02:44:34.572Z,27.40
2022-09-25T02:47:14.134Z,23.40
2022-09-25T02:49:47.026Z,21.90
2022-09-25T02:52:41.671Z,21.57
2022-09-25T02:55:32.421Z,21.30
2022-09-25T02:58:08.460Z,23.67
2022-09-25T03:00:37.916Z,23.60
2022-09-25T03:03:08.064Z,21.07
2022-09-25T03:05:36.010Z,16.90
2022-09-25T03:08:21.050Z,18.13
2022-09-25T03:10:48.238Z,18.90
2022-09-25T03:13:17.472Z,20.40
2022-09-25T03:15:46.707Z,19.43
2022-09-25T03:18:14.480Z,21.47
2022-09-25T03:20:41.047Z,27.33
2022-09-25T03:23:07.610Z,19.33
2022-09-25T03:25:33.992Z,18.90
2022-09-25T03:28:00.480Z,21.03
2022-09-25T03:30:29.367Z,22.93
2022-09-25T03:32:55.963Z,22.00
2022-09-25T03:35:22.814Z,25.30
2022-09-25T03:37:49.162Z,20.97
2022-09-25T03:40:15.702Z,21.47
2022-09-25T03:42:43.169Z,18.67
2022-09-25T03:45:11.446Z,19.63
2022-09-25T03:47:38.225Z,18.53
2022-09-25T03:50:04.868Z,17.63
2022-09-25T03:52:31.711Z,17.60
2022-09-25T03:54:58.043Z,14.53
2022-09-25T03:57:25.547Z,13.83
2022-09-25T03:59:52.317Z,10.60
2022-09-25T04:02:19.444Z,15.20
2022-09-25T04:04:45.848Z,10.90
2022-09-25T04:07:13.148Z,10.33
2022-09-25T04:09:39.679Z,6.83
2022-09-25T04:12:08.809Z,9.90
2022-09-25T04:14:35.130Z,7.23
2022-09-25T04:17:01.496Z,9.73
2022-09-25T04:19:27.838Z,14.97
2022-09-25T04:21:54.197Z,7.70
2022-09-25T04:24:40.838Z,6.63
2022-09-25T04:27:07.870Z,9.03
2022-09-25T04:29:34.536Z,8.17
2022-09-25T04:32:19.591Z,9.67
2022-09-25T04:34:46.099Z,11.40
2022-09-25T04:37:14.011Z,11.20
2022-09-25T04:39:40.472Z,9.20
2022-09-25T04:42:07.217Z,10.53
2022-09-25T04:44:33.562Z,10.27
2022-09-25T04:46:59.902Z,8.50
2022-09-25T04:49:26.261Z,9.87
2022-09-25T04:51:52.616Z,9.10
2022-09-25T04:54:18.935Z,8.83
2022-09-25T04:56:45.250Z,10.03
2022-09-25T04:59:16.547Z,10.20
2022-09-25T05:01:43.034Z,8.60
2022-09-25T05:04:09.666Z,10.77
2022-09-25T05:06:36.274Z,16.17
2022-09-25T05:09:03.573Z,15.23
2022-09-25T05:11:29.929Z,9.87
2022-09-25T05:13:56.251Z,7.30
2022-09-25T05:16:22.655Z,10.13
2022-09-25T05:18:49.269Z,11.93
2022-09-25T05:21:15.606Z,18.13
2022-09-25T05:23:41.913Z,12.10
2022-09-25T05:26:09.464Z,8.53
2022-09-25T05:28:35.861Z,11.17
2022-09-25T05:31:03.774Z,6.10
2022-09-25T05:33:31.723Z,12.50
2022-09-25T05:36:07.660Z,12.43
2022-09-25T05:38:35.652Z,8.67
2022-09-25T05:41:07.389Z,13.80
2022-09-25T05:43:35.130Z,11.73
2022-09-25T05:46:01.551Z,10.90
2022-09-25T05:48:28.011Z,7.90
2022-09-25T05:50:55.917Z,13.47
2022-09-25T05:53:23.520Z,10.90
2022-09-25T05:55:54.778Z,12.20
2022-09-25T05:58:23.979Z,13.23
2022-09-25T06:00:50.946Z,9.33
2022-09-25T06:03:18.180Z,9.00
2022-09-25T06:05:46.149Z,12.47
2022-09-25T06:08:13.871Z,9.30
2022-09-25T06:10:41.457Z,13.43
2022-09-25T06:13:08.684Z,7.97
2022-09-25T06:15:37.759Z,9.70
2022-09-25T06:18:05.729Z,8.63
2022-09-25T06:20:32.512Z,7.70
2022-09-25T06:23:00.598Z,9.97
2022-09-25T06:25:32.472Z,10.33
2022-09-25T06:28:01.039Z,10.27
2022-09-25T06:30:34.297Z,10.17
2022-09-25T06:33:01.686Z,6.00
2022-09-25T06:35:31.800Z,13.80
2022-09-25T06:38:00.011Z,7.13
2022-09-25T06:40:29.167Z,10.40
2022-09-25T06:43:00.149Z,7.20
2022-09-25T06:45:27.881Z,13.40
2022-09-25T06:47:57.737Z,7.43
2022-09-25T06:50:31.574Z,5.97
2022-09-25T06:53:01.755Z,6.13
2022-09-25T06:55:32.246Z,11.40
2022-09-25T06:57:58.830Z,9.40
2022-09-25T07:00:25.273Z,14.53
2022-09-25T07:03:10.486Z,11.97
2022-09-25T07:05:36.890Z,9.87
2022-09-25T07:08:03.700Z,10.67
2022-09-25T07:10:30.084Z,8.27
2022-09-25T07:12:56.947Z,11.80
2022-09-25T07:15:23.289Z,12.47
2022-09-25T07:17:49.635Z,12.27
2022-09-25T07:20:16.940Z,8.63
2022-09-25T07:22:43.374Z,10.47
2022-09-25T07:25:10.679Z,8.50
2022-09-25T07:27:37.495Z,9.80
2022-09-25T07:30:04.958Z,9.37
2022-09-25T07:32:31.683Z,6.80
2022-09-25T07:34:58.632Z,7.30
2022-09-25T07:37:25.315Z,11.40
2022-09-25T07:39:51.675Z,9.07
2022-09-25T07:42:18.242Z,6.93
2022-09-25T07:44:48.473Z,9.13
2022-09-25T07:47:16.910Z,12.63
2022-09-25T07:49:43.225Z,14.67
2022-09-25T07:52:09.606Z,7.70
2022-09-25T07:54:37.702Z,11.23
2022-09-25T07:57:04.079Z,8.80
2022-09-25T07:59:30.416Z,7.27
2022-09-25T08:01:58.159Z,9.60
2022-09-25T08:04:24.681Z,11.20
2022-09-25T08:06:51.004Z,13.20
2022-09-25T08:09:17.354Z,9.60
2022-09-25T08:11:44.046Z,8.00
2022-09-25T08:14:14.087Z,10.77
2022-09-25T08:16:40.971Z,7.27
2022-09-25T08:19:07.319Z,9.20
2022-09-25T08:21:34.049Z,12.57
2022-09-25T08:24:01.113Z,9.27
2022-09-25T08:26:29.079Z,12.57
2022-09-25T08:28:56.056Z,8.63
2022-09-25T08:31:22.609Z,10.03
2022-09-25T08:33:50.397Z,9.00
2022-09-25T08:36:17.914Z,10.17
2022-09-25T08:38:45.267Z,6.40
2022-09-25T08:41:54.792Z,8.90
2022-09-25T08:44:38.774Z,13.17
2022-09-25T08:47:37.587Z,13.10
2022-09-25T08:50:23.055Z,8.27
2022-09-25T08:53:05.674Z,9.57
2022-09-25T08:55:53.630Z,5.40
2022-09-25T08:58:26.495Z,10.20
2022-09-25T09:00:56.363Z,9.60
2022-09-25T09:03:25.594Z,5.97
2022-09-25T09:06:01.049Z,11.90
2022-09-25T09:08:30.784Z,8.70
2022-09-25T09:11:12.706Z,4.90
2022-09-25T09:13:46.297Z,6.40
2022-09-25T09:16:27.336Z,8.03
2022-09-25T09:18:55.354Z,5.83
2022-09-25T09:21:32.075Z,7.30
2022-09-25T09:24:04.606Z,4.60
2022-09-25T09:26:59.474Z,4.00
2022-09-25T09:29:50.490Z,8.33
2022-09-25T09:32:28.673Z,8.73
2022-09-25T09:35:15.254Z,4.67
2022-09-25T09:38:01.190Z,4.77
2022-09-25T09:40:47.065Z,8.07
2022-09-25T09:43:43.011Z,6.20
2022-09-25T09:46:34.245Z,6.57
2022-09-25T09:49:12.843Z,6.03
2022-09-25T09:51:48.394Z,5.83
2022-09-25T09:54:35.823Z,6.87
2022-09-25T09:57:10.156Z,4.03
2022-09-25T09:59:47.529Z,3.37
2022-09-25T10:02:29.388Z,4.07
2022-09-25T10:04:58.374Z,3.63
2022-09-25T10:07:28.236Z,3.70
2022-09-25T10:09:55.661Z,5.70
2022-09-25T10:12:30.526Z,7.97
2022-09-25T10:15:01.543Z,3.00
2022-09-25T10:17:29.938Z,4.67
2022-09-25T10:20:15.457Z,5.10
2022-09-25T10:22:45.538Z,6.73
2022-09-25T10:25:12.116Z,4.23
2022-09-25T10:27:41.427Z,2.83
2022-09-25T10:30:10.937Z,5.87
2022-09-25T10:32:57.057Z,4.07
2022-09-25T10:35:43.523Z,4.90
2022-09-25T10:38:37.966Z,4.40
2022-09-25T10:41:14.175Z,9.80
2022-09-25T10:44:01.082Z,5.07
2022-09-25T10:46:51.912Z,3.97
2022-09-25T10:49:45.353Z,6.67
2022-09-25T10:52:18.742Z,4.57
2022-09-25T10:54:46.241Z,5.10
2022-09-25T10:57:42.526Z,5.43
2022-09-25T11:00:26.609Z,6.30
2022-09-25T11:02:59.565Z,6.07
2022-09-25T11:05:31.877Z,5.43
2022-09-25T11:08:02.370Z,5.43
2022-09-25T11:10:33.810Z,3.40
2022-09-25T11:13:04.988Z,9.00
2022-09-25T11:15:31.409Z,5.60
2022-09-25T11:17:58.800Z,4.50
2022-09-25T11:20:29.493Z,5.00
2022-09-25T11:23:48.258Z,5.50
2022-09-25T11:26:27.478Z,4.83
2022-09-25T11:29:10.807Z,6.90
2022-09-25T11:31:51.563Z,4.77
2022-09-25T11:34:36.310Z,5.27
2022-09-25T11:37:15.939Z,3.90
2022-09-25T11:40:18.924Z,6.60
2022-09-25T11:42:54.261Z,4.30
2022-09-25T11:45:35.418Z,3.20
2022-09-25T11:48:28.904Z,7.37
2022-09-25T11:51:05.933Z,5.00
2022-09-25T11:53:52.818Z,3.77
2022-09-25T11:56:34.338Z,3.70
2022-09-25T11:59:31.050Z,4.10
2022-09-25T12:02:27.461Z,5.43
2022-09-25T12:05:28.928Z,4.87
2022-09-25T12:08:04.436Z,4.43
2022-09-25T12:10:44.947Z,3.77
2022-09-25T12:13:28.466Z,3.90
2022-09-25T12:15:58.871Z,3.47
2022-09-25T12:18:44.546Z,3.73
2022-09-25T12:21:17.775Z,3.70
2022-09-25T12:23:52.210Z,5.40
2022-09-25T12:26:23.551Z,2.00
2022-09-25T12:29:20.915Z,3.70
2022-09-25T12:32:00.387Z,4.97
2022-09-25T12:35:07.435Z,2.43
2022-09-25T12:37:43.368Z,3.13
2022-09-25T12:40:18.826Z,3.50
2022-09-25T12:42:48.603Z,3.60
2022-09-25T12:45:34.748Z,3.50
2022-09-25T12:48:11.877Z,3.00
2022-09-25T12:50:47.475Z,3.23
2022-09-25T12:53:25.666Z,3.30
2022-09-25T12:56:21.946Z,3.07
2022-09-25T12:59:16.171Z,3.10
2022-09-25T13:01:50.126Z,4.00
2022-09-25T13:04:54.158Z,5.27
2022-09-25T13:07:49.816Z,2.07
2022-09-25T13:10:50.162Z,3.03
2022-09-25T13:13:21.053Z,3.90
2022-09-25T13:15:57.233Z,2.70
2022-09-25T13:18:25.911Z,3.13
2022-09-25T13:20:56.225Z,3.80
2022-09-25T13:23:29.715Z,5.67
2022-09-25T13:26:01.128Z,3.63
2022-09-25T13:28:38.348Z,3.40
2022-09-25T13:31:22.330Z,3.30
2022-09-25T13:33:55.737Z,1.73
2022-09-25T13:36:23.210Z,5.27
2022-09-25T13:39:15.693Z,5.10
2022-09-25T13:41:49.248Z,4.80
2022-09-25T13:44:41.108Z,2.83
2022-09-25T13:47:25.646Z,2.30
2022-09-25T13:50:11.848Z,4.23
2022-09-25T13:52:41.243Z,2.40
2022-09-25T13:55:13.619Z,3.30
2022-09-25T13:57:58.435Z,3.50
2022-09-25T14:00:58.698Z,3.83
2022-09-25T14:03:41.829Z,4.07
2022-09-25T14:06:20.223Z,4.20
2022-09-25T14:08:47.997Z,3.97
2022-09-25T14:11:18.861Z,5.10
2022-09-25T14:13:49.877Z,5.80
2022-09-25T14:16:46.322Z,4.73
2022-09-25T14:19:20.457Z,4.13
2022-09-25T14:21:48.761Z,3.07
2022-09-25T14:24:25.688Z,3.33
2022-09-25T14:26:53.074Z,2.30
2022-09-25T14:29:24.437Z,4.53
2022-09-25T14:32:42.817Z,3.63
2022-09-25T14:35:30.744Z,2.70
2022-09-25T14:38:35.735Z,2.20
2022-09-25T14:41:59.686Z,4.13
2022-09-25T14:45:00.016Z,4.00
2022-09-25T14:47:34.317Z,3.37
2022-09-25T14:50:01.517Z,2.73
2022-09-25T14:52:32.942Z,4.80
2022-09-25T14:55:00.567Z,4.27
2022-09-25T14:57:30.954Z,6.10
2022-09-25T15:00:04.128Z,4.27
2022-09-25T15:02:36.980Z,3.07
2022-09-25T15:05:22.367Z,5.97
2022-09-25T15:07:48.886Z,2.23
2022-09-25T15:10:24.612Z,3.07
2022-09-25T15:12:51.506Z,5.00
2022-09-25T15:15:18.589Z,3.97
2022-09-25T15:18:04.758Z,4.60
2022-09-25T15:20:33.366Z,3.33
2022-09-25T15:23:13.276Z,2.07
2022-09-25T15:25:43.384Z,3.20
2022-09-25T15:28:15.895Z,1.80
2022-09-25T15:30:43.451Z,3.70
2022-09-25T15:33:26.622Z,2.90
2022-09-25T15:36:03.720Z,3.83
2022-09-25T15:38:35.602Z,3.00
2022-09-25T15:41:03.374Z,4.33
2022-09-25T15:43:30.121Z,3.70
2022-09-25T15:46:07.301Z,5.73
2022-09-25T15:48:36.942Z,4.90
2022-09-25T15:51:13.879Z,3.07
2022-09-25T15:53:44.146Z,3.23
2022-09-25T15:56:23.262Z,2.70
2022-09-25T15:59:16.904Z,3.30
2022-09-25T16:02:02.152Z,3.10
2022-09-25T16:04:49.150Z,5.30
2022-09-25T16:07:38.438Z,4.33
2022-09-25T16:10:11.523Z,4.60
2022-09-25T16:12:45.891Z,3.80
2022-09-25T16:15:27.408Z,7.20
2022-09-25T16:17:55.557Z,4.40
2022-09-25T16:20:24.634Z,6.37
2022-09-25T16:22:54.296Z,5.23
2022-09-25T16:25:25.805Z,4.37
2022-09-25T16:27:54.908Z,4.27
2022-09-25T16:30:23.892Z,6.07
2022-09-25T16:32:56.266Z,4.50
2022-09-25T16:36:10.249Z,6.33
2022-09-25T16:38:35.849Z,7.10
2022-09-25T16:41:07.507Z,4.17
2022-09-25T16:43:39.465Z,6.30
2022-09-25T16:46:17.802Z,6.57
2022-09-25T16:48:57.013Z,5.63
2022-09-25T16:51:26.829Z,10.17
2022-09-25T16:53:55.027Z,5.10
2022-09-25T16:56:26.114Z,3.33
2022-09-25T16:58:56.743Z,6.23
2022-09-25T17:01:25.952Z,3.17
2022-09-25T17:03:55.303Z,4.67
2022-09-25T17:06:23.933Z,4.67
2022-09-25T17:08:50.637Z,6.53
2022-09-25T17:11:19.400Z,5.17
2022-09-25T17:13:47.125Z,4.53
2022-09-25T17:16:13.740Z,2.87
2022-09-25T17:18:41.275Z,3.93
2022-09-25T17:21:13.667Z,4.53
2022-09-25T17:23:40.062Z,4.97
2022-09-25T17:26:15.993Z,5.30
2022-09-25T17:28:42.622Z,3.97
2022-09-25T17:31:14.716Z,5.80
2022-09-25T17:33:41.505Z,6.70
2022-09-25T17:36:11.270Z,6.37
2022-09-25T17:38:38.031Z,12.50
2022-09-25T17:41:07.493Z,7.70
2022-09-25T17:43:34.026Z,6.37
2022-09-25T17:46:01.035Z,8.80
2022-09-25T17:48:30.621Z,4.93
2022-09-25T17:51:15.019Z,6.53
2022-09-25T17:53:44.169Z,8.90
2022-09-25T17:56:12.031Z,6.67
2022-09-25T17:58:38.878Z,10.50
2022-09-25T18:01:13.742Z,8.30
2022-09-25T18:03:40.168Z,6.80
2022-09-25T18:06:06.570Z,6.83
2022-09-25T18:08:32.959Z,8.10
2022-09-25T18:10:59.302Z,7.43
2022-09-25T18:13:25.632Z,6.30
2022-09-25T18:16:00.031Z,5.43
2022-09-25T18:18:49.793Z,7.53
2022-09-25T18:21:35.671Z,4.80
2022-09-25T18:24:02.957Z,7.33
2022-09-25T18:26:31.408Z,5.80
2022-09-25T18:28:58.048Z,4.83
2022-09-25T18:31:25.396Z,5.63
2022-09-25T18:33:54.661Z,4.87
2022-09-25T18:36:22.065Z,7.40
2022-09-25T18:38:48.498Z,4.87
2022-09-25T18:41:14.879Z,5.93
2022-09-25T18:43:41.198Z,6.77
2022-09-25T18:46:07.779Z,5.50
2022-09-25T18:48:35.520Z,3.60
2022-09-25T18:51:01.838Z,5.13
2022-09-25T18:53:28.170Z,5.50
2022-09-25T18:55:55.727Z,10.93
2022-09-25T18:58:22.063Z,7.50
2022-09-25T19:00:48.384Z,5.93
2022-09-25T19:03:14.826Z,5.37
2022-09-25T19:05:44.340Z,4.50
2022-09-25T19:08:11.413Z,5.60
2022-09-25T19:10:37.823Z,3.87
2022-09-25T19:13:04.285Z,8.33
2022-09-25T19:15:30.870Z,6.03
2022-09-25T19:17:57.711Z,8.63
2022-09-25T19:20:24.389Z,5.97
2022-09-25T19:22:51.113Z,9.73
2022-09-25T19:25:22.189Z,6.87
2022-09-25T19:27:48.946Z,6.17
2022-09-25T19:30:16.161Z,8.00
2022-09-25T19:32:43.232Z,6.93
2022-09-25T19:35:11.169Z,10.07
2022-09-25T19:37:38.534Z,8.23
2022-09-25T19:40:24.215Z,7.87
2022-09-25T19:42:50.611Z,9.30
2022-09-25T19:45:18.588Z,7.27
2022-09-25T19:47:44.927Z,7.80
2022-09-25T19:50:14.700Z,9.87
2022-09-25T19:52:41.440Z,10.10
2022-09-25T19:55:08.818Z,5.27
2022-09-25T19:57:36.642Z,6.33
2022-09-25T20:00:04.855Z,7.00
2022-09-25T20:02:31.670Z,5.60
2022-09-25T20:04:58.361Z,5.40
2022-09-25T20:07:25.148Z,6.70
2022-09-25T20:09:52.480Z,7.77
2022-09-25T20:12:19.300Z,5.80
2022-09-25T20:14:48.341Z,4.20
2022-09-25T20:17:14.938Z,5.77
2022-09-25T20:19:41.828Z,4.10
2022-09-25T20:22:08.424Z,4.30
2022-09-25T20:24:38.102Z,3.20
2022-09-25T20:27:04.520Z,3.73
2022-09-25T20:29:31.800Z,5.00
2022-09-25T20:31:58.346Z,3.50
2022-09-25T20:34:24.722Z,4.50
2022-09-25T20:36:51.156Z,4.27
2022-09-25T20:39:21.201Z,5.10
2022-09-25T20:41:49.133Z,11.47
2022-09-25T20:44:15.611Z,9.33
2022-09-25T20:46:42.929Z,5.17
2022-09-25T20:49:10.649Z,6.10
2022-09-25T20:51:37.260Z,5.77
2022-09-25T20:54:06.658Z,5.20
2022-09-25T20:56:34.491Z,8.80
2022-09-25T20:59:01.887Z,4.13
2022-09-25T21:01:31.306Z,6.03
2022-09-25T21:04:02.193Z,6.70
2022-09-25T21:06:32.202Z,4.87
2022-09-25T21:09:01.046Z,4.80
2022-09-25T21:11:30.057Z,5.70
2022-09-25T21:13:58.520Z,6.70
2022-09-25T21:16:27.335Z,5.30
2022-09-25T21:18:56.795Z,5.17
2022-09-25T21:21:24.778Z,5.53
2022-09-25T21:23:54.124Z,6.00
2022-09-25T21:26:21.957Z,5.90
2022-09-25T21:28:51.453Z,5.90
2022-09-25T21:31:19.194Z,4.60
2022-09-25T21:33:45.696Z,6.07
2022-09-25T21:36:16.719Z,5.23
2022-09-25T21:38:43.619Z,4.87
2022-09-25T21:41:15.369Z,7.20
2022-09-25T21:43:42.202Z,9.00
2022-09-25T21:46:12.858Z,5.70
2022-09-25T21:48:41.150Z,5.40
2022-09-25T21:51:08.303Z,8.67
2022-09-25T21:53:34.827Z,6.40
2022-09-25T21:56:03.546Z,7.30
2022-09-25T21:58:30.379Z,8.07
2022-09-25T22:01:10.944Z,5.57
2022-09-25T22:03:39.758Z,7.40
2022-09-25T22:06:14.098Z,6.93
2022-09-25T22:08:42.808Z,6.27
2022-09-25T22:11:10.551Z,7.77
2022-09-25T22:13:39.338Z,7.67
2022-09-25T22:16:08.515Z,7.30
2022-09-25T22:18:44.971Z,6.43
2022-09-25T22:21:13.354Z,7.73
2022-09-25T22:23:39.970Z,6.40
2022-09-25T22:26:06.915Z,5.73
2022-09-25T22:28:34.953Z,6.53
2022-09-25T22:31:10.015Z,8.97
2022-09-25T22:33:36.723Z,9.20
2022-09-25T22:36:05.362Z,6.37
2022-09-25T22:38:31.777Z,7.07
2022-09-25T22:41:03.322Z,10.43
2022-09-25T22:43:29.698Z,6.87
2022-09-25T22:45:56.106Z,12.93
2022-09-25T22:48:22.478Z,7.43
2022-09-25T22:51:00.867Z,5.30
2022-09-25T22:53:29.320Z,6.87
2022-09-25T22:55:56.031Z,6.80
2022-09-25T22:58:22.583Z,6.23
2022-09-25T23:00:51.817Z,8.07
2022-09-25T23:03:19.420Z,9.00
2022-09-25T23:05:46.122Z,8.87
2022-09-25T23:08:12.727Z,7.27
2022-09-25T23:11:05.735Z,9.63
2022-09-25T23:13:25.615Z,7.83
2022-09-25T23:15:51.960Z,5.70
2022-09-25T23:18:18.314Z,6.13
2022-09-25T23:20:44.667Z,9.20
2022-09-25T23:23:11.006Z,6.00
2022-09-25T23:25:37.354Z,7.13
2022-09-25T23:28:03.910Z,8.97
2022-09-25T23:30:31.849Z,7.00
2022-09-25T23:32:58.530Z,7.33
2022-09-25T23:35:24.934Z,8.80
2022-09-25T23:37:51.937Z,6.70
2022-09-25T23:40:18.632Z,6.90
2022-09-25T23:42:44.980Z,6.60
2022-09-25T23:45:11.763Z,7.67
2022-09-25T23:47:38.185Z,11.33
2022-09-25T23:50:05.129Z,7.57
2022-09-25T23:52:31.619Z,9.33
2022-09-25T23:54:59.295Z,7.77
2022-09-25T23:57:25.714Z,6.70
2022-09-25T23:59:52.063Z,7.77
